Dolphin, Virginia
Current Conditions -  °F | °C
As of 4:35 PM on Friday 24 Oct 2014 (Local Time) from KLVL Reporting Station
Clear Clear  
Wind Chill: 66°   Ceiling: Unl
Heat Index: 66°   Visibility: 10mi
Dew Point: 47°   Wind: 0mph
Humidity: 50%   Direction: NA
Pressure: 29.94"   Gusts: NA
Location:  36.85°N, 77.81°W
Report Text: KLVL 242035Z AUTO 00000KT 10SM CLR 19/09 A2994 RMK AO1 T01910085
Loading
Personal Weather Stations






























Interactive Weather Map
Tropical Storm Tracking
New forecast layout! Learn more

10-Day Weather Forecast

Advertisements
Track Severe Weather on mobile